createdAt,value
2023-05-14T00:00:17.075Z,16.56
2023-05-14T00:01:17.041Z,16.67
2023-05-14T00:02:17.051Z,16.67
2023-05-14T00:03:17.160Z,16.59
2023-05-14T00:04:17.105Z,16.53
2023-05-14T00:05:17.000Z,16.67
2023-05-14T00:06:16.995Z,16.59
2023-05-14T00:07:16.996Z,16.59
2023-05-14T00:08:16.964Z,16.67
2023-05-14T00:09:16.947Z,16.58
2023-05-14T00:10:16.943Z,16.55
2023-05-14T00:11:16.951Z,16.63
2023-05-14T00:12:16.914Z,16.59
2023-05-14T00:13:16.917Z,16.58
2023-05-14T00:14:16.910Z,16.53
2023-05-14T00:15:16.901Z,16.56
2023-05-14T00:16:16.929Z,16.58
2023-05-14T00:17:16.870Z,16.50
2023-05-14T00:18:16.849Z,16.44
2023-05-14T00:19:16.901Z,16.48
2023-05-14T00:20:16.856Z,16.49
2023-05-14T00:21:16.821Z,16.42
2023-05-14T00:22:16.805Z,16.44
2023-05-14T00:23:16.817Z,16.42
2023-05-14T00:24:16.796Z,16.45
2023-05-14T00:25:16.804Z,16.38
2023-05-14T00:26:16.765Z,16.41
2023-05-14T00:27:16.763Z,16.38
2023-05-14T00:28:16.749Z,16.37
2023-05-14T00:29:16.746Z,16.37
2023-05-14T00:30:16.738Z,16.40
2023-05-14T00:31:16.737Z,16.35
2023-05-14T00:32:16.701Z,16.38
2023-05-14T00:33:16.692Z,16.37
2023-05-14T00:34:16.717Z,16.37
2023-05-14T00:35:16.689Z,16.34
2023-05-14T00:36:16.657Z,16.35
2023-05-14T00:37:16.659Z,16.31
2023-05-14T00:38:16.630Z,16.33
2023-05-14T00:39:16.677Z,16.18
2023-05-14T00:40:16.632Z,16.25
2023-05-14T00:41:16.615Z,16.18
2023-05-14T00:42:16.593Z,16.26
2023-05-14T00:43:16.635Z,16.20
2023-05-14T00:44:16.572Z,16.22
2023-05-14T00:45:16.563Z,16.20
2023-05-14T00:46:16.622Z,16.22
2023-05-14T00:47:16.559Z,16.16
2023-05-14T00:48:16.573Z,16.15
2023-05-14T00:49:16.512Z,16.15
2023-05-14T00:50:16.552Z,16.26
2023-05-14T00:51:16.503Z,16.22
2023-05-14T00:52:16.494Z,16.16
2023-05-14T00:53:16.492Z,16.12
2023-05-14T00:54:16.478Z,16.09
2023-05-14T00:55:16.479Z,16.12
2023-05-14T00:56:16.438Z,16.04
2023-05-14T00:57:16.464Z,16.09
2023-05-14T00:58:16.442Z,16.15
2023-05-14T00:59:16.433Z,16.03
2023-05-14T01:00:16.427Z,15.99
2023-05-14T01:01:16.562Z,15.99
2023-05-14T01:02:16.394Z,16.04
2023-05-14T01:03:16.681Z,16.00
2023-05-14T01:04:16.357Z,15.93
2023-05-14T01:05:16.396Z,15.94
2023-05-14T01:06:16.332Z,15.94
2023-05-14T01:07:16.356Z,15.89
2023-05-14T01:08:16.307Z,15.89
2023-05-14T01:09:16.308Z,15.82
2023-05-14T01:10:16.286Z,15.96
2023-05-14T01:11:16.293Z,15.94
2023-05-14T01:12:16.263Z,15.94
2023-05-14T01:13:16.266Z,15.89
2023-05-14T01:14:16.243Z,15.94
2023-05-14T01:15:16.260Z,15.92
2023-05-14T01:16:16.246Z,15.82
2023-05-14T01:17:16.210Z,15.88
2023-05-14T01:18:16.229Z,15.76
2023-05-14T01:19:16.279Z,15.78
2023-05-14T01:20:16.195Z,15.76
2023-05-14T01:21:16.173Z,15.74
2023-05-14T01:22:16.155Z,15.75
2023-05-14T01:23:16.143Z,15.68
2023-05-14T01:24:16.148Z,15.66
2023-05-14T01:25:16.129Z,15.70
2023-05-14T01:26:16.108Z,15.64
2023-05-14T01:27:16.102Z,15.57
2023-05-14T01:28:16.093Z,15.51
2023-05-14T01:29:16.097Z,15.46
2023-05-14T01:30:16.103Z,15.45
2023-05-14T01:31:16.144Z,15.49
2023-05-14T01:32:16.048Z,15.48
2023-05-14T01:33:16.097Z,15.59
2023-05-14T01:34:16.043Z,15.57
2023-05-14T01:35:16.060Z,15.56
2023-05-14T01:36:16.008Z,15.57
2023-05-14T01:37:15.992Z,15.57
2023-05-14T01:38:15.990Z,15.64
2023-05-14T01:39:15.995Z,15.56
2023-05-14T01:40:15.984Z,15.54
2023-05-14T01:41:15.950Z,15.59
2023-05-14T01:42:15.932Z,15.70
2023-05-14T01:43:15.951Z,15.63
2023-05-14T01:44:15.939Z,15.76
2023-05-14T01:45:15.900Z,15.75
2023-05-14T01:46:15.931Z,15.67
2023-05-14T01:47:15.883Z,15.74
2023-05-14T01:48:15.871Z,15.76
2023-05-14T01:49:15.887Z,15.72
2023-05-14T01:50:15.871Z,15.74
2023-05-14T01:51:15.832Z,15.66
2023-05-14T01:52:15.821Z,15.57
2023-05-14T01:53:15.842Z,15.61
2023-05-14T01:54:15.821Z,15.60
2023-05-14T01:55:15.804Z,15.61
2023-05-14T01:56:15.784Z,15.60
2023-05-14T01:57:15.766Z,15.66
2023-05-14T01:58:15.786Z,15.63
2023-05-14T01:59:15.741Z,15.59
2023-05-14T02:00:15.741Z,15.56
2023-05-14T02:01:15.729Z,15.59
2023-05-14T02:02:15.744Z,15.61
2023-05-14T02:03:15.714Z,15.57
2023-05-14T02:04:15.737Z,15.57
2023-05-14T02:05:15.689Z,15.59
2023-05-14T02:06:15.700Z,15.48
2023-05-14T02:07:15.667Z,15.45
2023-05-14T02:08:15.663Z,15.46
2023-05-14T02:09:15.634Z,15.45
2023-05-14T02:10:15.640Z,15.30
2023-05-14T02:11:15.615Z,15.27
2023-05-14T02:12:15.627Z,15.23
2023-05-14T02:13:15.599Z,15.31
2023-05-14T02:14:15.581Z,15.26
2023-05-14T02:15:15.637Z,15.20
2023-05-14T02:16:15.607Z,15.28
2023-05-14T02:17:15.574Z,15.19
2023-05-14T02:18:15.538Z,15.15
2023-05-14T02:19:15.730Z,15.13
2023-05-14T02:20:15.536Z,15.02
2023-05-14T02:21:15.537Z,15.02
2023-05-14T02:22:15.518Z,15.03
2023-05-14T02:23:15.483Z,15.03
2023-05-14T02:24:15.485Z,15.02
2023-05-14T02:25:15.467Z,15.09
2023-05-14T02:26:15.470Z,15.03
2023-05-14T02:27:15.446Z,15.02
2023-05-14T02:28:15.431Z,15.12
2023-05-14T02:29:15.416Z,15.13
2023-05-14T02:30:15.436Z,15.13
2023-05-14T02:31:15.470Z,15.11
2023-05-14T02:32:15.400Z,15.01
2023-05-14T02:33:15.445Z,14.91
2023-05-14T02:34:15.372Z,14.83
2023-05-14T02:35:15.372Z,14.74
2023-05-14T02:36:15.342Z,14.74
2023-05-14T02:37:15.340Z,14.68
2023-05-14T02:38:15.338Z,14.65
2023-05-14T02:39:15.307Z,14.64
2023-05-14T02:40:15.327Z,14.64
2023-05-14T02:41:15.291Z,14.64
2023-05-14T02:42:15.350Z,14.67
2023-05-14T02:43:15.265Z,14.54
2023-05-14T02:44:15.269Z,14.50
2023-05-14T02:45:15.265Z,14.53
2023-05-14T02:46:15.316Z,14.50
2023-05-14T02:47:15.223Z,14.52
2023-05-14T02:48:15.213Z,14.49
2023-05-14T02:49:15.245Z,14.67
2023-05-14T02:50:15.195Z,14.62
2023-05-14T02:51:15.185Z,14.60
2023-05-14T02:52:15.173Z,14.61
2023-05-14T02:53:15.155Z,14.68
2023-05-14T02:54:15.184Z,14.61
2023-05-14T02:55:15.146Z,14.54
2023-05-14T02:56:15.142Z,14.50
2023-05-14T02:57:15.117Z,14.52
2023-05-14T02:58:15.129Z,14.67
2023-05-14T02:59:15.120Z,14.68
2023-05-14T03:00:15.128Z,14.56
2023-05-14T03:01:15.120Z,14.52
2023-05-14T03:02:15.108Z,14.46
2023-05-14T03:03:15.120Z,14.28
2023-05-14T03:04:15.041Z,14.19
2023-05-14T03:05:15.026Z,14.17
2023-05-14T03:06:15.039Z,14.01
2023-05-14T03:07:15.004Z,14.04
2023-05-14T03:08:15.032Z,13.98
2023-05-14T03:09:14.999Z,14.01
2023-05-14T03:10:15.008Z,14.07
2023-05-14T03:11:14.986Z,14.14
2023-05-14T03:12:14.970Z,14.25
2023-05-14T03:13:14.958Z,14.37
2023-05-14T03:14:14.952Z,14.46
2023-05-14T03:15:14.918Z,14.46
2023-05-14T03:16:14.932Z,14.43
2023-05-14T03:17:14.906Z,14.39
2023-05-14T03:18:14.885Z,14.44
2023-05-14T03:19:15.042Z,14.46
2023-05-14T03:20:14.905Z,14.39
2023-05-14T03:21:14.854Z,14.25
2023-05-14T03:22:14.861Z,14.07
2023-05-14T03:23:14.842Z,14.09
2023-05-14T03:24:14.824Z,14.07
2023-05-14T03:25:14.815Z,14.19
2023-05-14T03:26:14.833Z,14.04
2023-05-14T03:27:14.798Z,14.02
2023-05-14T03:28:14.774Z,14.09
2023-05-14T03:29:14.765Z,14.09
2023-05-14T03:30:14.757Z,14.16
2023-05-14T03:31:14.825Z,14.25
2023-05-14T03:32:14.734Z,14.28
2023-05-14T03:33:14.732Z,14.39
2023-05-14T03:34:14.715Z,14.38
2023-05-14T03:35:14.698Z,14.37
2023-05-14T03:36:14.703Z,14.27
2023-05-14T03:37:14.677Z,14.20
2023-05-14T03:38:14.669Z,14.25
2023-05-14T03:39:14.654Z,14.27
2023-05-14T03:40:14.668Z,14.31
2023-05-14T03:41:14.654Z,14.32
2023-05-14T03:42:14.641Z,14.28
2023-05-14T03:43:14.633Z,14.07
2023-05-14T03:44:14.603Z,14.12
2023-05-14T03:45:14.606Z,13.96
2023-05-14T03:46:14.587Z,13.98
2023-05-14T03:47:14.571Z,14.07
2023-05-14T03:48:14.666Z,14.01
2023-05-14T03:49:14.544Z,13.91
2023-05-14T03:50:14.557Z,13.95
2023-05-14T03:51:14.529Z,13.92
2023-05-14T03:52:14.527Z,13.99
2023-05-14T03:53:14.504Z,14.07
2023-05-14T03:54:14.506Z,13.98
2023-05-14T03:55:14.493Z,14.10
2023-05-14T03:56:14.473Z,14.04
2023-05-14T03:57:14.455Z,14.09
2023-05-14T03:58:14.660Z,14.16
2023-05-14T03:59:14.512Z,14.27
2023-05-14T04:00:14.433Z,14.29
2023-05-14T04:01:14.419Z,14.27
2023-05-14T04:02:14.487Z,14.25
2023-05-14T04:03:14.500Z,14.24
2023-05-14T04:04:14.485Z,14.37
2023-05-14T04:05:14.377Z,14.39
2023-05-14T04:06:14.363Z,14.39
2023-05-14T04:07:14.349Z,14.43
2023-05-14T04:08:14.375Z,14.46
2023-05-14T04:09:14.328Z,14.49
2023-05-14T04:10:14.317Z,14.61
2023-05-14T04:11:14.305Z,14.62
2023-05-14T04:12:14.295Z,14.65
2023-05-14T04:13:14.302Z,14.69
2023-05-14T04:14:14.292Z,14.65
2023-05-14T04:15:14.262Z,14.69
2023-05-14T04:16:14.297Z,14.64
2023-05-14T04:17:14.257Z,14.75
2023-05-14T04:18:14.347Z,14.87
2023-05-14T04:19:14.270Z,14.75
2023-05-14T04:20:14.208Z,14.80
2023-05-14T04:21:14.217Z,14.86
2023-05-14T04:22:14.212Z,14.93
2023-05-14T04:23:14.192Z,14.93
2023-05-14T04:24:14.167Z,14.95
2023-05-14T04:25:14.154Z,14.94
2023-05-14T04:26:14.143Z,14.87
2023-05-14T04:27:14.145Z,14.81
2023-05-14T04:28:14.125Z,14.80
2023-05-14T04:29:14.112Z,14.78
2023-05-14T04:30:14.125Z,14.61
2023-05-14T04:31:14.115Z,14.60
2023-05-14T04:32:14.087Z,14.43
2023-05-14T04:33:14.060Z,14.20
2023-05-14T04:34:14.059Z,13.94
2023-05-14T04:35:14.044Z,13.83
2023-05-14T04:36:14.048Z,13.81
2023-05-14T04:37:14.037Z,13.81
2023-05-14T04:38:14.006Z,13.77
2023-05-14T04:39:13.997Z,13.88
2023-05-14T04:40:13.993Z,13.98
2023-05-14T04:41:13.996Z,14.07
2023-05-14T04:42:13.972Z,14.29
2023-05-14T04:43:13.962Z,14.38
2023-05-14T04:44:13.946Z,14.49
2023-05-14T04:45:13.942Z,14.62
2023-05-14T04:46:14.079Z,14.61
2023-05-14T04:47:13.909Z,14.80
2023-05-14T04:48:13.900Z,14.87
2023-05-14T04:49:13.883Z,14.93
2023-05-14T04:50:13.962Z,14.91
2023-05-14T04:51:13.884Z,15.12
2023-05-14T04:52:13.888Z,15.27
2023-05-14T04:53:13.849Z,15.39
2023-05-14T04:54:13.894Z,15.49
2023-05-14T04:55:13.832Z,15.46
2023-05-14T04:56:13.834Z,15.39
2023-05-14T04:57:13.811Z,15.45
2023-05-14T04:58:13.790Z,15.45
2023-05-14T04:59:13.780Z,15.49
2023-05-14T05:00:13.773Z,15.70
2023-05-14T05:01:13.845Z,15.63
2023-05-14T05:02:13.764Z,15.68
2023-05-14T05:03:13.863Z,15.82
2023-05-14T05:04:13.917Z,15.88
2023-05-14T05:05:13.729Z,16.00
2023-05-14T05:06:13.705Z,16.07
2023-05-14T05:07:13.695Z,16.15
2023-05-14T05:08:13.738Z,16.20
2023-05-14T05:09:13.689Z,16.33
2023-05-14T05:10:13.669Z,16.37
2023-05-14T05:11:13.668Z,16.49
2023-05-14T05:12:13.644Z,16.59
2023-05-14T05:13:13.627Z,16.63
2023-05-14T05:14:13.627Z,16.68
2023-05-14T05:15:13.617Z,16.62
2023-05-14T05:16:13.711Z,16.68
2023-05-14T05:17:13.600Z,16.65
2023-05-14T05:18:13.794Z,16.55
2023-05-14T05:19:13.697Z,16.50
2023-05-14T05:20:13.580Z,16.52
2023-05-14T05:21:13.547Z,16.41
2023-05-14T05:22:13.541Z,16.38
2023-05-14T05:23:13.539Z,16.45
2023-05-14T05:24:13.514Z,16.34
2023-05-14T05:25:13.509Z,16.31
2023-05-14T05:26:13.497Z,16.33
2023-05-14T05:27:13.499Z,16.34
2023-05-14T05:28:13.520Z,16.33
2023-05-14T05:29:13.461Z,16.34
2023-05-14T05:30:13.456Z,16.31
2023-05-14T05:31:13.479Z,16.27
2023-05-14T05:32:13.438Z,16.40
2023-05-14T05:33:13.423Z,16.40
2023-05-14T05:34:13.459Z,16.34
2023-05-14T05:35:13.405Z,16.37
2023-05-14T05:36:13.384Z,16.48
2023-05-14T05:37:13.418Z,16.62
2023-05-14T05:38:13.357Z,16.62
2023-05-14T05:39:13.345Z,16.59
2023-05-14T05:40:13.361Z,16.60
2023-05-14T05:41:13.346Z,16.67
2023-05-14T05:42:21.026Z,16.74
2023-05-14T05:43:13.312Z,16.75
2023-05-14T05:44:13.308Z,16.90
2023-05-14T05:45:13.275Z,16.96
2023-05-14T05:46:13.308Z,16.95
2023-05-14T05:47:13.254Z,16.98
2023-05-14T05:48:13.242Z,17.00
2023-05-14T05:49:13.267Z,17.06
2023-05-14T05:50:13.263Z,17.06
2023-05-14T05:51:13.219Z,17.08
2023-05-14T05:52:13.194Z,17.14
2023-05-14T05:53:13.191Z,17.28
2023-05-14T05:54:13.173Z,17.26
2023-05-14T05:55:13.181Z,17.32
2023-05-14T05:56:13.153Z,17.35
2023-05-14T05:57:13.146Z,17.36
2023-05-14T05:58:21.046Z,17.40
2023-05-14T05:59:13.130Z,17.36
2023-05-14T06:00:13.216Z,17.41
2023-05-14T06:01:13.102Z,17.40
2023-05-14T06:02:13.213Z,17.38
2023-05-14T06:03:13.100Z,17.40
2023-05-14T06:04:13.103Z,17.41
2023-05-14T06:05:13.101Z,17.43
2023-05-14T06:06:13.062Z,17.57
2023-05-14T06:07:13.033Z,17.64
2023-05-14T06:08:13.023Z,17.70
2023-05-14T06:09:13.039Z,17.79
2023-05-14T06:10:13.029Z,17.84
2023-05-14T06:11:12.993Z,17.85
2023-05-14T06:12:12.986Z,17.85
2023-05-14T06:13:12.986Z,17.84
2023-05-14T06:14:12.978Z,17.85
2023-05-14T06:15:12.948Z,17.78
2023-05-14T06:16:12.964Z,17.79
2023-05-14T06:17:12.930Z,17.76
2023-05-14T06:18:12.954Z,17.79
2023-05-14T06:19:13.092Z,17.63
2023-05-14T06:20:12.894Z,17.67
2023-05-14T06:21:12.890Z,17.78
2023-05-14T06:22:12.889Z,17.78
2023-05-14T06:23:12.880Z,17.74
2023-05-14T06:24:12.849Z,17.76
2023-05-14T06:25:12.890Z,17.69
2023-05-14T06:26:12.827Z,17.62
2023-05-14T06:27:12.824Z,17.59
2023-05-14T06:28:12.858Z,17.48
2023-05-14T06:29:12.804Z,17.41
2023-05-14T06:30:12.809Z,17.53
2023-05-14T06:31:12.840Z,17.50
2023-05-14T06:32:12.892Z,17.43
2023-05-14T06:33:12.763Z,17.46
2023-05-14T06:34:12.743Z,17.51
2023-05-14T06:35:12.767Z,17.38
2023-05-14T06:36:12.719Z,17.40
2023-05-14T06:37:12.722Z,17.43
2023-05-14T06:38:12.853Z,17.43
2023-05-14T06:39:12.687Z,17.40
2023-05-14T06:40:12.687Z,17.63
2023-05-14T06:41:12.679Z,17.55
2023-05-14T06:42:12.662Z,17.62
2023-05-14T06:43:12.653Z,17.57
2023-05-14T06:44:12.631Z,17.62
2023-05-14T06:45:12.624Z,17.67
2023-05-14T06:46:12.616Z,17.70
2023-05-14T06:47:12.614Z,17.63
2023-05-14T06:48:12.640Z,17.69
2023-05-14T06:49:12.629Z,17.71
2023-05-14T06:50:12.565Z,17.78
2023-05-14T06:51:12.580Z,17.74
2023-05-14T06:52:12.554Z,17.74
2023-05-14T06:53:12.535Z,17.85
2023-05-14T06:54:12.546Z,17.89
2023-05-14T06:55:12.528Z,17.88
2023-05-14T06:56:12.535Z,17.87
2023-05-14T06:57:12.493Z,17.84
2023-05-14T06:58:12.479Z,17.82
2023-05-14T06:59:12.468Z,17.79
2023-05-14T07:00:12.479Z,17.87
2023-05-14T07:01:12.501Z,17.89
2023-05-14T07:02:12.434Z,17.87
2023-05-14T07:03:12.427Z,17.87
2023-05-14T07:04:12.542Z,17.87
2023-05-14T07:05:12.444Z,17.84
2023-05-14T07:06:13.640Z,17.91
2023-05-14T07:07:12.384Z,17.95
2023-05-14T07:08:12.373Z,18.02
2023-05-14T07:09:12.371Z,18.10
2023-05-14T07:10:12.383Z,17.89
2023-05-14T07:11:12.338Z,17.84
2023-05-14T07:12:12.325Z,17.82
2023-05-14T07:13:12.332Z,17.84
2023-05-14T07:14:12.305Z,17.88
2023-05-14T07:15:12.339Z,17.95
2023-05-14T07:16:12.302Z,18.02
2023-05-14T07:17:12.407Z,18.09
2023-05-14T07:18:12.297Z,18.10
2023-05-14T07:19:12.405Z,18.24
2023-05-14T07:20:12.294Z,18.27
2023-05-14T07:21:12.231Z,18.34
2023-05-14T07:22:12.217Z,18.44
2023-05-14T07:23:12.211Z,18.47
2023-05-14T07:24:12.216Z,18.47
2023-05-14T07:25:12.193Z,18.49
2023-05-14T07:26:12.196Z,18.52
2023-05-14T07:27:12.172Z,18.54
2023-05-14T07:28:12.156Z,18.72
2023-05-14T07:29:12.256Z,18.70
2023-05-14T07:30:12.131Z,18.76
2023-05-14T07:31:12.146Z,18.74
2023-05-14T07:32:14.698Z,18.74
2023-05-14T07:33:12.193Z,18.79
2023-05-14T07:34:12.172Z,18.74
2023-05-14T07:35:12.087Z,18.73
2023-05-14T07:36:12.078Z,18.91
2023-05-14T07:37:12.057Z,18.90
2023-05-14T07:38:12.078Z,18.91
2023-05-14T07:39:12.041Z,18.95
2023-05-14T07:40:12.030Z,19.01
2023-05-14T07:41:12.014Z,19.02
2023-05-14T07:42:19.299Z,19.05
2023-05-14T07:43:13.010Z,19.29
2023-05-14T07:44:11.980Z,19.39
2023-05-14T07:45:11.971Z,19.43
2023-05-14T07:46:11.963Z,19.60
2023-05-14T07:47:11.983Z,19.68
2023-05-14T07:48:12.309Z,19.90
2023-05-14T07:49:11.958Z,20.13
2023-05-14T07:50:11.922Z,20.41
2023-05-14T07:51:11.911Z,20.39
2023-05-14T07:52:11.919Z,20.41
2023-05-14T07:53:11.884Z,20.56
2023-05-14T07:54:11.878Z,20.58
2023-05-14T07:55:11.867Z,20.66
2023-05-14T07:56:11.859Z,20.80
2023-05-14T07:57:11.952Z,20.86
2023-05-14T07:58:11.851Z,20.91
2023-05-14T07:59:11.819Z,20.83
2023-05-14T08:00:11.811Z,20.84
2023-05-14T08:01:11.801Z,20.84
2023-05-14T08:02:11.852Z,21.17
2023-05-14T08:03:11.924Z,21.26
2023-05-14T08:04:11.859Z,21.46
2023-05-14T08:05:11.760Z,21.54
2023-05-14T08:06:11.769Z,21.66
2023-05-14T08:07:11.760Z,21.64
2023-05-14T08:08:11.726Z,21.76
2023-05-14T08:09:11.717Z,21.76
2023-05-14T08:10:11.728Z,21.82
2023-05-14T08:11:11.748Z,22.02
2023-05-14T08:12:11.738Z,22.20
2023-05-14T08:13:11.721Z,22.27
2023-05-14T08:14:11.676Z,22.37
2023-05-14T08:15:11.682Z,22.31
2023-05-14T08:16:11.647Z,22.14
2023-05-14T08:17:11.683Z,22.20
2023-05-14T08:18:11.640Z,21.74
2023-05-14T08:19:11.784Z,21.74
2023-05-14T08:20:11.626Z,21.60
2023-05-14T08:21:11.598Z,21.46
2023-05-14T08:22:11.570Z,21.61
2023-05-14T08:23:11.571Z,21.85
2023-05-14T08:24:11.591Z,22.01
2023-05-14T08:25:11.562Z,22.38
2023-05-14T08:26:11.529Z,22.74
2023-05-14T08:27:11.525Z,22.89
2023-05-14T08:28:11.521Z,23.05
2023-05-14T08:29:12.810Z,23.24
2023-05-14T08:30:11.512Z,23.31
2023-05-14T08:31:11.542Z,23.39
2023-05-14T08:32:22.103Z,23.47
2023-05-14T08:33:12.507Z,23.40
2023-05-14T08:34:11.512Z,23.40
2023-05-14T08:35:11.434Z,23.82
2023-05-14T08:36:11.427Z,23.76
2023-05-14T08:37:11.416Z,23.80
2023-05-14T08:38:11.446Z,23.85
2023-05-14T08:39:11.421Z,23.86
2023-05-14T08:40:11.382Z,24.04
2023-05-14T08:41:11.371Z,24.08
2023-05-14T08:42:11.361Z,24.16
2023-05-14T08:43:11.364Z,24.19
2023-05-14T08:44:11.371Z,24.23
2023-05-14T08:45:11.368Z,24.05
2023-05-14T08:46:11.344Z,24.08
2023-05-14T08:47:11.308Z,24.08
2023-05-14T08:48:11.394Z,23.94
2023-05-14T08:49:11.371Z,24.00
2023-05-14T08:50:11.274Z,23.82
2023-05-14T08:51:11.264Z,23.79
2023-05-14T08:52:11.367Z,23.80
2023-05-14T08:53:11.261Z,23.83
2023-05-14T08:54:11.243Z,23.77
2023-05-14T08:55:11.241Z,23.82
2023-05-14T08:56:11.209Z,23.75
2023-05-14T08:57:11.219Z,23.50
2023-05-14T08:58:11.197Z,23.40
2023-05-14T08:59:11.182Z,23.31
2023-05-14T09:00:11.168Z,23.15
2023-05-14T09:01:11.156Z,23.19
2023-05-14T09:02:11.269Z,23.12
2023-05-14T09:03:11.161Z,23.01
2023-05-14T09:04:11.195Z,22.93
2023-05-14T09:05:11.125Z,22.77
2023-05-14T09:06:11.168Z,22.75
2023-05-14T09:07:11.112Z,22.83
2023-05-14T09:08:11.080Z,22.99
2023-05-14T09:09:11.073Z,23.38
2023-05-14T09:10:11.092Z,23.68
2023-05-14T09:11:11.062Z,24.05
2023-05-14T09:12:11.052Z,24.45
2023-05-14T09:13:11.025Z,24.85
2023-05-14T09:14:11.037Z,25.35
2023-05-14T09:15:11.001Z,25.77
2023-05-14T09:16:11.027Z,25.91
2023-05-14T09:17:10.983Z,26.18
2023-05-14T09:18:11.022Z,26.40
2023-05-14T09:19:11.049Z,26.55
2023-05-14T09:20:10.976Z,26.31
2023-05-14T09:21:10.954Z,26.12
2023-05-14T09:22:10.939Z,26.17
2023-05-14T09:23:10.925Z,26.29
2023-05-14T09:24:10.909Z,26.28
2023-05-14T09:25:10.914Z,26.25
2023-05-14T09:26:10.890Z,26.20
2023-05-14T09:27:10.893Z,26.31
2023-05-14T09:28:10.867Z,26.32
2023-05-14T09:29:10.863Z,26.55
2023-05-14T09:30:10.876Z,26.74
2023-05-14T09:31:10.870Z,26.49
2023-05-14T09:32:10.826Z,26.21
2023-05-14T09:33:10.851Z,25.79
2023-05-14T09:34:10.821Z,25.53
2023-05-14T09:35:10.842Z,25.25
2023-05-14T09:36:10.788Z,24.97
2023-05-14T09:37:10.773Z,24.79
2023-05-14T09:38:10.771Z,25.12
2023-05-14T09:39:10.780Z,25.24
2023-05-14T09:40:10.779Z,25.27
2023-05-14T09:41:10.738Z,25.31
2023-05-14T09:42:10.723Z,25.30
2023-05-14T09:43:10.715Z,25.39
2023-05-14T09:44:10.754Z,25.57
2023-05-14T09:45:10.705Z,25.67
2023-05-14T09:46:10.700Z,26.02
2023-05-14T09:47:10.721Z,26.11
2023-05-14T09:48:11.021Z,26.44
2023-05-14T09:49:10.738Z,26.68
2023-05-14T09:50:10.667Z,26.80
2023-05-14T09:51:10.632Z,26.94
2023-05-14T09:52:10.623Z,27.10
2023-05-14T09:53:10.625Z,27.06
2023-05-14T09:54:10.628Z,27.43
2023-05-14T09:55:10.666Z,27.21
2023-05-14T09:56:10.581Z,26.81
2023-05-14T09:57:10.592Z,26.40
2023-05-14T09:58:10.600Z,25.98
2023-05-14T09:59:10.550Z,25.62
2023-05-14T10:00:10.540Z,24.82
2023-05-14T10:01:10.569Z,24.29
2023-05-14T10:02:10.550Z,24.08
2023-05-14T10:03:10.594Z,23.79
2023-05-14T10:04:10.543Z,23.60
2023-05-14T10:05:10.485Z,23.46
2023-05-14T10:06:10.537Z,23.20
2023-05-14T10:07:10.518Z,23.08
2023-05-14T10:08:10.458Z,22.89
2023-05-14T10:09:10.449Z,22.82
2023-05-14T10:10:10.437Z,22.75
2023-05-14T10:11:10.425Z,22.74
2023-05-14T10:12:10.466Z,22.59
2023-05-14T10:13:10.400Z,22.43
2023-05-14T10:14:10.394Z,22.28
2023-05-14T10:15:10.401Z,22.25
2023-05-14T10:16:10.385Z,22.10
2023-05-14T10:17:10.555Z,22.04
2023-05-14T10:18:10.392Z,21.97
2023-05-14T10:19:10.408Z,21.92
2023-05-14T10:20:10.350Z,21.90
2023-05-14T10:21:10.331Z,21.75
2023-05-14T10:22:10.346Z,21.76
2023-05-14T10:23:10.336Z,21.69
2023-05-14T10:24:10.286Z,21.59
2023-05-14T10:25:10.272Z,21.56
2023-05-14T10:26:10.259Z,21.42
2023-05-14T10:27:10.263Z,21.39
2023-05-14T10:28:10.239Z,21.24
2023-05-14T10:29:10.227Z,21.14
2023-05-14T10:30:10.259Z,21.08
2023-05-14T10:31:10.236Z,20.93
2023-05-14T10:32:10.210Z,20.93
2023-05-14T10:33:10.288Z,20.95
2023-05-14T10:34:10.177Z,20.91
2023-05-14T10:35:10.194Z,20.99
2023-05-14T10:36:10.240Z,20.91
2023-05-14T10:37:10.169Z,20.98
2023-05-14T10:38:10.151Z,21.02
2023-05-14T10:39:10.122Z,21.13
2023-05-14T10:40:10.144Z,21.19
2023-05-14T10:41:10.106Z,21.16
2023-05-14T10:42:10.104Z,21.16
2023-05-14T10:43:10.081Z,21.19
2023-05-14T10:44:10.691Z,21.20
2023-05-14T10:45:10.072Z,21.24
2023-05-14T10:46:10.121Z,21.16
2023-05-14T10:47:10.037Z,21.14
2023-05-14T10:48:10.109Z,21.05
2023-05-14T10:49:10.054Z,21.04
2023-05-14T10:50:10.009Z,21.08
2023-05-14T10:51:10.077Z,20.95
2023-05-14T10:52:09.984Z,20.91
2023-05-14T10:53:09.978Z,20.96
2023-05-14T10:54:10.027Z,20.91
2023-05-14T10:55:09.952Z,20.91
2023-05-14T10:56:09.944Z,21.02
2023-05-14T10:57:09.931Z,20.98
2023-05-14T10:58:09.951Z,20.95
2023-05-14T10:59:09.942Z,20.81
2023-05-14T11:00:09.900Z,20.87
2023-05-14T11:01:09.925Z,20.87
2023-05-14T11:02:09.983Z,20.87
2023-05-14T11:03:09.968Z,20.89
2023-05-14T11:04:09.886Z,20.87
2023-05-14T11:05:09.848Z,20.77
2023-05-14T11:06:09.842Z,20.79
2023-05-14T11:07:09.826Z,20.80
2023-05-14T11:08:09.824Z,20.90
2023-05-14T11:09:09.820Z,20.81
2023-05-14T11:10:09.811Z,20.83
2023-05-14T11:11:09.800Z,20.76
2023-05-14T11:12:09.810Z,20.66
2023-05-14T11:13:09.832Z,20.58
2023-05-14T11:14:10.256Z,20.46
2023-05-14T11:15:09.754Z,20.33
2023-05-14T11:16:21.501Z,20.46
2023-05-14T11:17:10.844Z,20.35
2023-05-14T11:18:09.759Z,20.39
2023-05-14T11:19:09.751Z,20.27
2023-05-14T11:20:09.685Z,20.33
2023-05-14T11:21:09.721Z,20.25
2023-05-14T11:22:09.676Z,20.23
2023-05-14T11:23:09.653Z,20.10
2023-05-14T11:24:09.652Z,20.23
2023-05-14T11:25:09.629Z,20.25
2023-05-14T11:26:09.681Z,20.21
2023-05-14T11:27:09.624Z,20.30
2023-05-14T11:28:09.602Z,20.27
2023-05-14T11:29:09.596Z,20.27
2023-05-14T11:30:09.578Z,20.33
2023-05-14T11:31:09.594Z,20.18
2023-05-14T11:32:09.571Z,20.21
2023-05-14T11:33:09.589Z,20.18
2023-05-14T11:34:09.571Z,20.27
2023-05-14T11:35:09.542Z,20.20
2023-05-14T11:36:09.536Z,20.25
2023-05-14T11:37:09.507Z,20.35
2023-05-14T11:38:09.494Z,20.41
2023-05-14T11:39:09.489Z,20.35
2023-05-14T11:40:09.491Z,20.31
2023-05-14T11:41:09.468Z,20.39
2023-05-14T11:42:09.469Z,20.33
2023-05-14T11:43:09.438Z,20.42
2023-05-14T11:44:09.430Z,20.34
2023-05-14T11:45:09.439Z,20.38
2023-05-14T11:46:09.485Z,20.34
2023-05-14T11:47:09.409Z,20.42
2023-05-14T11:48:09.427Z,20.35
2023-05-14T11:49:09.374Z,20.34
2023-05-14T11:50:09.984Z,20.31
2023-05-14T11:51:09.351Z,20.35
2023-05-14T11:52:09.347Z,20.38
2023-05-14T11:53:09.398Z,20.33
2023-05-14T11:54:09.334Z,20.24
2023-05-14T11:55:09.324Z,20.34
2023-05-14T11:56:10.110Z,20.35
2023-05-14T11:57:09.287Z,20.27
2023-05-14T11:58:09.325Z,20.34
2023-05-14T11:59:09.283Z,20.42
2023-05-14T12:00:09.261Z,20.27
2023-05-14T12:01:09.268Z,20.27
2023-05-14T12:02:09.276Z,20.33
2023-05-14T12:03:09.324Z,20.33
2023-05-14T12:04:09.340Z,20.30
2023-05-14T12:05:09.252Z,20.31
2023-05-14T12:06:09.193Z,20.33
2023-05-14T12:07:09.174Z,20.43
2023-05-14T12:08:09.177Z,20.38
2023-05-14T12:09:09.172Z,20.59
2023-05-14T12:10:09.181Z,20.59
2023-05-14T12:11:09.142Z,20.66
2023-05-14T12:12:09.125Z,20.77
2023-05-14T12:13:09.137Z,20.69
2023-05-14T12:14:09.138Z,20.91
2023-05-14T12:15:09.087Z,20.86
2023-05-14T12:16:09.108Z,20.84
2023-05-14T12:17:09.065Z,20.87
2023-05-14T12:18:23.015Z,20.81
2023-05-14T12:19:10.103Z,20.87
2023-05-14T12:20:09.035Z,20.98
2023-05-14T12:21:09.024Z,21.04
2023-05-14T12:22:09.029Z,21.02
2023-05-14T12:23:09.011Z,21.16
2023-05-14T12:24:08.991Z,21.23
2023-05-14T12:25:08.986Z,21.30
2023-05-14T12:26:08.979Z,21.27
2023-05-14T12:27:08.995Z,21.36
2023-05-14T12:28:08.976Z,21.27
2023-05-14T12:29:08.945Z,21.38
2023-05-14T12:31:08.945Z,21.44
2023-05-14T12:32:08.921Z,21.35
2023-05-14T12:33:09.073Z,21.27
2023-05-14T12:34:08.887Z,21.29
2023-05-14T12:35:08.894Z,21.23
2023-05-14T12:37:08.868Z,21.11
2023-05-14T12:38:08.848Z,21.06
2023-05-14T12:39:08.840Z,21.04
2023-05-14T12:40:08.831Z,21.04
2023-05-14T12:41:08.823Z,21.17
2023-05-14T12:42:08.805Z,21.19
2023-05-14T12:43:08.790Z,21.21
2023-05-14T12:44:08.782Z,21.32
2023-05-14T12:45:08.969Z,21.34
2023-05-14T12:46:08.819Z,21.34
2023-05-14T12:47:08.819Z,21.21
2023-05-14T12:48:08.814Z,21.32
2023-05-14T12:49:08.769Z,21.24
2023-05-14T12:50:08.748Z,21.32
2023-05-14T12:51:08.752Z,21.38
2023-05-14T12:53:09.688Z,21.51
2023-05-14T12:54:08.688Z,21.44
2023-05-14T12:55:08.776Z,21.56